Time,TemperatureF,DewpointF,PressureIn,WindDirection,WindDirectionDegrees,WindSpeedMPH,WindSpeedGustMPH,Humidity,HourlyPrecipIn,Conditions,Clouds,dailyrainin,SolarRadiationWatts/m^2,SoftwareType,DateUTC
2013-05-18 00:02:00,82.0,18.0,29.90,WNW,287,14.0,23.0,8,-99.99,,,-99.99,0.000000,,2013-05-18 06:02:00,
2013-05-18 00:11:00,82.0,17.0,29.90,WNW,284,15.0,23.0,8,-99.99,,,-99.99,0.000000,,2013-05-18 06:11:00,
2013-05-18 00:22:00,82.0,17.0,29.90,WNW,284,15.0,23.0,8,-99.99,,,-99.99,0.000000,,2013-05-18 06:22:00,
2013-05-18 00:32:00,82.0,16.0,29.90,West,281,14.0,22.0,8,-99.99,,,-99.99,0.000000,,2013-05-18 06:32:00,
2013-05-18 00:42:00,81.0,16.0,29.90,West,277,12.0,20.0,8,-99.99,,,-99.99,0.000000,,2013-05-18 06:42:00,
2013-05-18 00:52:00,81.0,16.0,29.90,West,277,12.0,20.0,8,-99.99,,,-99.99,0.000000,,2013-05-18 06:52:00,
2013-05-18 01:01:00,81.0,16.0,29.89,West,277,15.0,23.0,8,-99.99,,,-99.99,0.000000,,2013-05-18 07:01:00,
2013-05-18 01:11:00,81.0,17.0,29.89,WNW,282,15.0,26.0,8,-99.99,,,-99.99,0.000000,,2013-05-18 07:11:00,
2013-05-18 01:21:00,81.0,17.0,29.89,WNW,282,15.0,26.0,8,-99.99,,,-99.99,0.000000,,2013-05-18 07:21:00,
2013-05-18 01:31:00,80.0,18.0,29.89,West,280,16.0,28.0,9,-99.99,,,-99.99,0.000000,,2013-05-18 07:31:00,
2013-05-18 01:42:00,81.0,18.0,29.89,WNW,288,18.0,28.0,9,-99.99,,,-99.99,0.000000,,2013-05-18 07:42:00,
2013-05-18 01:52:00,81.0,18.0,29.89,WNW,288,18.0,28.0,9,-99.99,,,-99.99,0.000000,,2013-05-18 07:52:00,
2013-05-18 02:01:00,80.0,18.0,29.89,WNW,291,19.0,28.0,9,-99.99,,,-99.99,0.000000,,2013-05-18 08:01:00,
2013-05-18 02:11:00,80.0,18.0,29.89,WNW,297,18.0,28.0,9,-99.99,,,-99.99,0.000000,,2013-05-18 08:11:00,
2013-05-18 02:21:00,80.0,18.0,29.89,WNW,297,18.0,28.0,9,-99.99,,,-99.99,0.000000,,2013-05-18 08:21:00,
2013-05-18 02:32:00,79.0,18.0,29.88,WNW,298,17.0,28.0,10,-99.99,,,-99.99,0.000000,,2013-05-18 08:32:00,
2013-05-18 02:42:00,79.0,19.0,29.88,WNW,295,17.0,28.0,10,-99.99,,,-99.99,0.000000,,2013-05-18 08:42:00,
2013-05-18 02:52:00,79.0,19.0,29.88,WNW,295,17.0,28.0,10,-99.99,,,-99.99,0.000000,,2013-05-18 08:52:00,
2013-05-18 03:02:00,79.0,20.0,29.88,WNW,298,19.0,30.0,10,-99.99,,,-99.99,0.000000,,2013-05-18 09:02:00,
2013-05-18 03:11:00,79.0,20.0,29.88,WNW,300,19.0,30.0,10,-99.99,,,-99.99,0.000000,,2013-05-18 09:11:00,
2013-05-18 03:22:00,79.0,20.0,29.88,WNW,300,19.0,30.0,10,-99.99,,,-99.99,0.000000,,2013-05-18 09:22:00,
2013-05-18 03:32:00,79.0,20.0,29.88,WNW,302,18.0,33.0,10,-99.99,,,-99.99,0.000000,,2013-05-18 09:32:00,
2013-05-18 03:43:00,79.0,20.0,29.89,WNW,299,17.0,30.0,11,-99.99,,,-99.99,0.000000,,2013-05-18 09:43:00,
2013-05-18 03:53:00,79.0,20.0,29.89,WNW,299,17.0,30.0,11,-99.99,,,-99.99,0.000000,,2013-05-18 09:53:00,
2013-05-18 04:03:00,78.0,20.0,29.89,WNW,286,17.0,29.0,11,-99.99,,,-99.99,0.000000,,2013-05-18 10:03:00,
2013-05-18 04:12:00,78.0,21.0,29.90,West,272,12.0,24.0,11,-99.99,,,-99.99,0.000000,,2013-05-18 10:12:00,
2013-05-18 04:23:00,78.0,21.0,29.90,West,272,12.0,24.0,11,-99.99,,,-99.99,0.000000,,2013-05-18 10:23:00,
2013-05-18 04:33:00,78.0,21.0,29.90,WNW,292,15.0,29.0,11,-99.99,,,-99.99,0.000000,,2013-05-18 10:33:00,
2013-05-18 04:42:00,78.0,21.0,29.90,WNW,299,14.0,26.0,11,-99.99,,,-99.99,0.000000,,2013-05-18 10:42:00,
2013-05-18 04:53:00,78.0,21.0,29.90,WNW,299,14.0,26.0,11,-99.99,,,-99.99,0.000000,,2013-05-18 10:53:00,
2013-05-18 05:03:00,77.0,21.0,29.91,WNW,295,12.0,23.0,12,-99.99,,,-99.99,0.000000,,2013-05-18 11:03:00,
2013-05-18 05:12:00,77.0,21.0,29.91,WNW,301,13.0,21.0,12,-99.99,,,-99.99,0.000000,,2013-05-18 11:12:00,
2013-05-18 05:22:00,77.0,21.0,29.91,WNW,301,13.0,21.0,12,-99.99,,,-99.99,0.000000,,2013-05-18 11:22:00,
2013-05-18 05:33:00,77.0,21.0,29.92,WNW,298,12.0,21.0,12,-99.99,,,-99.99,0.000000,,2013-05-18 11:33:00,
2013-05-18 05:42:00,77.0,21.0,29.92,WNW,291,8.0,19.0,12,-99.99,,,-99.99,0.000000,,2013-05-18 11:42:00,
2013-05-18 05:52:00,77.0,21.0,29.92,WNW,291,8.0,19.0,12,-99.99,,,-99.99,0.000000,,2013-05-18 11:52:00,
2013-05-18 06:01:00,77.0,21.0,29.92,WNW,289,11.0,20.0,12,-99.99,,,-99.99,0.000000,,2013-05-18 12:01:00,
2013-05-18 06:12:00,77.0,21.0,29.92,WNW,299,12.0,17.0,12,-99.99,,,-99.99,0.000000,,2013-05-18 12:12:00,
2013-05-18 06:23:00,77.0,21.0,29.92,WNW,299,12.0,17.0,12,-99.99,,,-99.99,0.000000,,2013-05-18 12:23:00,
2013-05-18 06:33:00,77.0,21.0,29.93,WNW,296,10.0,15.0,12,-99.99,,,-99.99,0.700000,,2013-05-18 12:33:00,
2013-05-18 06:42:00,76.0,21.0,29.94,WNW,293,11.0,18.0,12,-99.99,,,-99.99,6.970000,,2013-05-18 12:42:00,
2013-05-18 06:52:00,76.0,21.0,29.94,WNW,293,11.0,18.0,12,-99.99,,,-99.99,6.970000,,2013-05-18 12:52:00,
2013-05-18 07:01:00,76.0,21.0,29.94,WNW,291,11.0,16.0,12,-99.99,,,-99.99,19.530001,,2013-05-18 13:01:00,
2013-05-18 07:11:00,76.0,21.0,29.95,WNW,292,11.0,18.0,12,-99.99,,,-99.99,23.010000,,2013-05-18 13:11:00,
2013-05-18 07:21:00,76.0,21.0,29.95,WNW,292,11.0,18.0,12,-99.99,,,-99.99,23.010000,,2013-05-18 13:21:00,
2013-05-18 07:33:00,76.0,22.0,29.96,WNW,290,12.0,18.0,13,-99.99,,,-99.99,28.590000,,2013-05-18 13:33:00,
2013-05-18 07:43:00,75.0,22.0,29.97,WNW,295,9.0,13.0,13,-99.99,,,-99.99,34.869999,,2013-05-18 13:43:00,
2013-05-18 07:53:00,75.0,22.0,29.97,WNW,295,9.0,13.0,13,-99.99,,,-99.99,34.869999,,2013-05-18 13:53:00,
2013-05-18 08:03:00,75.0,22.0,29.97,WNW,303,8.0,11.0,13,-99.99,,,-99.99,59.270000,,2013-05-18 14:03:00,
2013-05-18 08:12:00,76.0,22.0,29.97,NW,319,6.0,10.0,13,-99.99,,,-99.99,251.039993,,2013-05-18 14:12:00,
2013-05-18 08:22:00,76.0,22.0,29.97,NW,319,6.0,10.0,13,-99.99,,,-99.99,251.039993,,2013-05-18 14:22:00,
2013-05-18 08:32:00,78.0,23.0,29.97,NW,316,11.0,21.0,12,-99.99,,,-99.99,329.839996,,2013-05-18 14:32:00,
2013-05-18 08:42:00,79.0,24.0,29.98,NW,306,13.0,20.0,12,-99.99,,,-99.99,366.799988,,2013-05-18 14:42:00,
2013-05-18 08:54:00,79.0,24.0,29.98,NW,306,13.0,20.0,12,-99.99,,,-99.99,366.799988,,2013-05-18 14:54:00,
2013-05-18 09:03:00,79.0,24.0,29.98,WNW,300,15.0,23.0,13,-99.99,,,-99.99,412.119995,,2013-05-18 15:03:00,
2013-05-18 09:13:00,80.0,25.0,29.99,NW,307,14.0,22.0,13,-99.99,,,-99.99,458.149994,,2013-05-18 15:13:00,
2013-05-18 09:23:00,80.0,25.0,29.99,NW,307,14.0,22.0,13,-99.99,,,-99.99,458.149994,,2013-05-18 15:23:00,
2013-05-18 09:33:00,80.0,25.0,29.99,NW,311,14.0,22.0,13,-99.99,,,-99.99,506.959991,,2013-05-18 15:33:00,
2013-05-18 09:43:00,79.0,26.0,29.99,WNW,298,17.0,26.0,13,-99.99,,,-99.99,555.770020,,2013-05-18 15:43:00,
2013-05-18 09:53:00,79.0,26.0,29.99,WNW,298,17.0,26.0,13,-99.99,,,-99.99,555.770020,,2013-05-18 15:53:00,
2013-05-18 10:02:00,80.0,26.0,29.99,WNW,302,16.0,23.0,13,-99.99,,,-99.99,597.609985,,2013-05-18 16:02:00,
2013-05-18 10:13:00,80.0,27.0,29.99,WNW,303,16.0,25.0,14,-99.99,,,-99.99,655.489990,,2013-05-18 16:13:00,
2013-05-18 10:22:00,80.0,27.0,29.99,WNW,303,16.0,25.0,14,-99.99,,,-99.99,655.489990,,2013-05-18 16:22:00,
2013-05-18 10:33:00,80.0,27.0,29.99,WNW,287,13.0,23.0,14,-99.99,,,-99.99,709.890015,,2013-05-18 16:33:00,
2013-05-18 10:42:00,80.0,26.0,29.99,WNW,295,16.0,24.0,13,-99.99,,,-99.99,746.150024,,2013-05-18 16:42:00,
2013-05-18 10:52:00,80.0,26.0,29.99,WNW,295,16.0,24.0,13,-99.99,,,-99.99,746.150024,,2013-05-18 16:52:00,
2013-05-18 11:02:00,80.0,26.0,29.99,WNW,296,14.0,25.0,13,-99.99,,,-99.99,774.739990,,2013-05-18 17:02:00,
2013-05-18 11:12:00,81.0,26.0,29.98,WNW,292,11.0,19.0,13,-99.99,,,-99.99,811.700012,,2013-05-18 17:12:00,
2013-05-18 11:22:00,81.0,26.0,29.98,WNW,292,11.0,19.0,13,-99.99,,,-99.99,811.700012,,2013-05-18 17:22:00,
2013-05-18 11:32:00,81.0,26.0,29.98,WNW,290,14.0,24.0,13,-99.99,,,-99.99,794.260010,,2013-05-18 17:32:00,
2013-05-18 11:42:00,82.0,26.0,29.98,WNW,283,13.0,24.0,12,-99.99,,,-99.99,864.000000,,2013-05-18 17:42:00,
2013-05-18 11:52:00,82.0,26.0,29.98,WNW,283,13.0,24.0,12,-99.99,,,-99.99,864.000000,,2013-05-18 17:52:00,
2013-05-18 12:01:00,82.0,26.0,29.97,West,279,14.0,22.0,12,-99.99,,,-99.99,845.169983,,2013-05-18 18:01:00,
2013-05-18 12:12:00,83.0,26.0,29.97,WNW,302,8.0,18.0,12,-99.99,,,-99.99,906.530029,,2013-05-18 18:12:00,
2013-05-18 12:21:00,83.0,26.0,29.97,WNW,302,8.0,18.0,12,-99.99,,,-99.99,906.530029,,2013-05-18 18:21:00,
2013-05-18 12:32:00,83.0,26.0,29.96,West,281,9.0,19.0,12,-99.99,,,-99.99,926.760010,,2013-05-18 18:32:00,
2013-05-18 12:42:00,84.0,26.0,29.95,West,279,9.0,20.0,12,-99.99,,,-99.99,946.280029,,2013-05-18 18:42:00,
2013-05-18 12:52:00,84.0,26.0,29.95,West,279,9.0,20.0,12,-99.99,,,-99.99,946.280029,,2013-05-18 18:52:00,
2013-05-18 13:02:00,85.0,24.0,29.95,SW,232,12.0,23.0,10,-99.99,,,-99.99,969.989990,,2013-05-18 19:02:00,
2013-05-18 13:12:00,85.0,25.0,29.94,SW,230,15.0,26.0,11,-99.99,,,-99.99,972.780029,,2013-05-18 19:12:00,
2013-05-18 13:22:00,85.0,25.0,29.94,SW,230,15.0,26.0,11,-99.99,,,-99.99,972.780029,,2013-05-18 19:22:00,
2013-05-18 13:32:00,84.0,24.0,29.93,SW,236,19.0,31.0,11,-99.99,,,-99.99,969.989990,,2013-05-18 19:32:00,
2013-05-18 13:42:00,84.0,25.0,29.93,SW,235,18.0,30.0,11,-99.99,,,-99.99,972.780029,,2013-05-18 19:42:00,
2013-05-18 13:52:00,84.0,25.0,29.93,SW,235,18.0,30.0,11,-99.99,,,-99.99,972.780029,,2013-05-18 19:52:00,
2013-05-18 14:02:00,84.0,25.0,29.93,SW,235,18.0,30.0,11,-99.99,,,-99.99,972.780029,,2013-05-18 20:02:00,
2013-05-18 14:11:00,85.0,25.0,29.92,WSW,250,13.0,25.0,11,-99.99,,,-99.99,960.229980,,2013-05-18 20:11:00,
2013-05-18 14:22:00,85.0,25.0,29.92,WSW,250,13.0,25.0,11,-99.99,,,-99.99,960.229980,,2013-05-18 20:22:00,
2013-05-18 14:32:00,85.0,25.0,29.92,WSW,245,15.0,25.0,11,-99.99,,,-99.99,945.580017,,2013-05-18 20:32:00,
2013-05-18 14:42:00,85.0,25.0,29.91,SW,236,12.0,21.0,11,-99.99,,,-99.99,929.549988,,2013-05-18 20:42:00,
2013-05-18 14:52:00,85.0,25.0,29.91,SW,236,12.0,21.0,11,-99.99,,,-99.99,929.549988,,2013-05-18 20:52:00,
2013-05-18 15:01:00,85.0,25.0,29.90,WSW,238,14.0,27.0,10,-99.99,,,-99.99,910.020020,,2013-05-18 21:01:00,
2013-05-18 15:12:00,86.0,23.0,29.90,WSW,245,15.0,28.0,10,-99.99,,,-99.99,885.609985,,2013-05-18 21:12:00,
2013-05-18 15:21:00,86.0,23.0,29.90,WSW,245,15.0,28.0,10,-99.99,,,-99.99,885.609985,,2013-05-18 21:21:00,
2013-05-18 15:32:00,86.0,23.0,29.90,WSW,253,15.0,27.0,10,-99.99,,,-99.99,842.380005,,2013-05-18 21:32:00,
2013-05-18 15:43:00,87.0,24.0,29.89,WSW,245,16.0,29.0,10,-99.99,,,-99.99,811.000000,,2013-05-18 21:43:00,
2013-05-18 15:53:00,87.0,24.0,29.89,WSW,245,16.0,29.0,10,-99.99,,,-99.99,811.000000,,2013-05-18 21:53:00,
2013-05-18 16:03:00,87.0,23.0,29.88,SW,230,17.0,33.0,9,-99.99,,,-99.99,792.869995,,2013-05-18 22:03:00,
2013-05-18 16:12:00,87.0,22.0,29.88,SW,230,18.0,31.0,9,-99.99,,,-99.99,741.960022,,2013-05-18 22:12:00,
2013-05-18 16:23:00,87.0,22.0,29.88,SW,230,18.0,31.0,9,-99.99,,,-99.99,741.960022,,2013-05-18 22:23:00,
2013-05-18 16:33:00,87.0,23.0,29.87,SW,231,13.0,24.0,9,-99.99,,,-99.99,616.440002,,2013-05-18 22:33:00,
2013-05-18 16:42:00,87.0,23.0,29.87,WSW,241,15.0,30.0,9,-99.99,,,-99.99,665.950012,,2013-05-18 22:42:00,
2013-05-18 16:53:00,87.0,23.0,29.87,WSW,241,15.0,30.0,9,-99.99,,,-99.99,665.950012,,2013-05-18 22:53:00,
2013-05-18 17:01:00,87.0,23.0,29.85,SW,236,21.0,39.0,9,-99.99,,,-99.99,626.900024,,2013-05-18 23:01:00,
2013-05-18 17:12:00,87.0,22.0,29.85,WSW,246,20.0,34.0,9,-99.99,,,-99.99,440.019989,,2013-05-18 23:12:00,
2013-05-18 17:22:00,87.0,22.0,29.85,WSW,246,20.0,34.0,9,-99.99,,,-99.99,440.019989,,2013-05-18 23:22:00,
2013-05-18 17:32:00,87.0,20.0,29.85,SW,236,18.0,30.0,8,-99.99,,,-99.99,161.779999,,2013-05-18 23:32:00,
2013-05-18 17:41:00,87.0,20.0,29.84,SW,232,15.0,35.0,8,-99.99,,,-99.99,406.549988,,2013-05-18 23:41:00,
2013-05-18 17:53:00,87.0,20.0,29.84,SW,232,15.0,35.0,8,-99.99,,,-99.99,406.549988,,2013-05-18 23:53:00,
2013-05-18 18:01:00,87.0,18.0,29.84,WSW,237,16.0,31.0,7,-99.99,,,-99.99,449.079987,,2013-05-19 00:01:00,
2013-05-18 18:11:00,88.0,15.0,29.83,SW,230,20.0,36.0,6,-99.99,,,-99.99,407.940002,,2013-05-19 00:11:00,
2013-05-18 18:21:00,88.0,15.0,29.83,SW,230,20.0,36.0,6,-99.99,,,-99.99,407.940002,,2013-05-19 00:21:00,
2013-05-18 18:32:00,87.0,15.0,29.83,SW,233,21.0,38.0,6,-99.99,,,-99.99,343.790009,,2013-05-19 00:32:00,
2013-05-18 18:41:00,87.0,15.0,29.83,SW,234,16.0,34.0,6,-99.99,,,-99.99,140.860001,,2013-05-19 00:41:00,
2013-05-18 18:52:00,87.0,15.0,29.83,SW,234,16.0,34.0,6,-99.99,,,-99.99,140.860001,,2013-05-19 00:52:00,
2013-05-18 19:01:00,87.0,15.0,29.83,WSW,245,16.0,29.0,6,-99.99,,,-99.99,57.880001,,2013-05-19 01:01:00,
2013-05-18 19:11:00,86.0,16.0,29.83,WSW,240,20.0,35.0,7,-99.99,,,-99.99,102.510002,,2013-05-19 01:11:00,
2013-05-18 19:21:00,86.0,16.0,29.83,WSW,240,20.0,35.0,7,-99.99,,,-99.99,102.510002,,2013-05-19 01:21:00,
2013-05-18 19:32:00,86.0,17.0,29.83,SW,230,14.0,28.0,7,-99.99,,,-99.99,149.929993,,2013-05-19 01:32:00,
2013-05-18 19:42:00,85.0,18.0,29.83,WSW,244,12.0,27.0,8,-99.99,,,-99.99,108.089996,,2013-05-19 01:42:00,
2013-05-18 19:52:00,85.0,18.0,29.83,WSW,244,12.0,27.0,8,-99.99,,,-99.99,108.089996,,2013-05-19 01:52:00,
2013-05-18 20:01:00,85.0,19.0,29.84,WSW,248,11.0,19.0,8,-99.99,,,-99.99,62.060001,,2013-05-19 02:01:00,
2013-05-18 20:11:00,84.0,19.0,29.84,WSW,251,11.0,28.0,9,-99.99,,,-99.99,27.200001,,2013-05-19 02:11:00,
2013-05-18 20:21:00,84.0,19.0,29.84,WSW,251,11.0,28.0,9,-99.99,,,-99.99,27.200001,,2013-05-19 02:21:00,
2013-05-18 20:32:00,83.0,19.0,29.85,West,259,11.0,28.0,9,-99.99,,,-99.99,8.370000,,2013-05-19 02:32:00,
2013-05-18 20:42:00,83.0,18.0,29.85,WSW,258,10.0,25.0,9,-99.99,,,-99.99,1.390000,,2013-05-19 02:42:00,
2013-05-18 20:52:00,83.0,18.0,29.85,WSW,258,10.0,25.0,9,-99.99,,,-99.99,1.390000,,2013-05-19 02:52:00,
2013-05-18 21:01:00,82.0,18.0,29.85,West,266,9.0,15.0,9,-99.99,,,-99.99,0.000000,,2013-05-19 03:01:00,
2013-05-18 21:11:00,81.0,18.0,29.85,West,273,9.0,14.0,9,-99.99,,,-99.99,0.000000,,2013-05-19 03:11:00,
2013-05-18 21:22:00,81.0,18.0,29.85,West,273,9.0,14.0,9,-99.99,,,-99.99,0.000000,,2013-05-19 03:22:00,
2013-05-18 21:33:00,81.0,18.0,29.86,WNW,284,13.0,21.0,9,-99.99,,,-99.99,0.000000,,2013-05-19 03:33:00,
2013-05-18 21:42:00,81.0,18.0,29.86,WNW,286,11.0,17.0,9,-99.99,,,-99.99,0.000000,,2013-05-19 03:42:00,
2013-05-18 21:53:00,81.0,18.0,29.86,WNW,286,11.0,17.0,9,-99.99,,,-99.99,0.000000,,2013-05-19 03:53:00,
2013-05-18 22:02:00,80.0,18.0,29.87,WNW,284,11.0,19.0,9,-99.99,,,-99.99,0.000000,,2013-05-19 04:02:00,
2013-05-18 22:12:00,80.0,18.0,29.87,WNW,287,13.0,20.0,9,-99.99,,,-99.99,0.000000,,2013-05-19 04:12:00,
2013-05-18 22:23:00,80.0,18.0,29.87,WNW,287,13.0,20.0,9,-99.99,,,-99.99,0.000000,,2013-05-19 04:23:00,
2013-05-18 22:33:00,80.0,19.0,29.88,WNW,289,12.0,20.0,9,-99.99,,,-99.99,0.000000,,2013-05-19 04:33:00,
2013-05-18 22:42:00,79.0,19.0,29.89,West,280,10.0,23.0,10,-99.99,,,-99.99,0.000000,,2013-05-19 04:42:00,
2013-05-18 22:53:00,79.0,19.0,29.89,West,280,10.0,23.0,10,-99.99,,,-99.99,0.000000,,2013-05-19 04:53:00,
2013-05-18 23:02:00,79.0,19.0,29.89,West,280,10.0,23.0,10,-99.99,,,-99.99,0.000000,,2013-05-19 05:02:00,
2013-05-18 23:12:00,79.0,19.0,29.90,WNW,291,11.0,20.0,10,-99.99,,,-99.99,0.000000,,2013-05-19 05:12:00,
2013-05-18 23:22:00,79.0,19.0,29.90,WNW,291,11.0,20.0,10,-99.99,,,-99.99,0.000000,,2013-05-19 05:22:00,
2013-05-18 23:32:00,78.0,19.0,29.90,WNW,295,10.0,18.0,10,-99.99,,,-99.99,0.000000,,2013-05-19 05:32:00,
2013-05-18 23:42:00,78.0,19.0,29.90,WNW,290,10.0,18.0,11,-99.99,,,-99.99,0.000000,,2013-05-19 05:42:00,
2013-05-18 23:52:00,78.0,19.0,29.90,WNW,290,10.0,18.0,11,-99.99,,,-99.99,0.000000,,2013-05-19 05:52:00,